sensor_id;sensor_type;location;lat;lon;timestamp;P1;durP1;ratioP1;P2;durP2;ratioP2
12687;SDS011;6408;59.388;17.798;2022-11-15T00:00:46;1.57;;;1.00;;
12687;SDS011;6408;59.388;17.798;2022-11-15T00:03:14;1.20;;;0.90;;
12687;SDS011;6408;59.388;17.798;2022-11-15T00:05:43;1.10;;;1.00;;
12687;SDS011;6408;59.388;17.798;2022-11-15T00:08:11;1.27;;;1.17;;
12687;SDS011;6408;59.388;17.798;2022-11-15T00:10:38;1.10;;;1.00;;
12687;SDS011;6408;59.388;17.798;2022-11-15T00:13:06;0.90;;;0.90;;
12687;SDS011;6408;59.388;17.798;2022-11-15T00:15:34;1.00;;;1.00;;
12687;SDS011;6408;59.388;17.798;2022-11-15T00:18:04;1.00;;;1.00;;
12687;SDS011;6408;59.388;17.798;2022-11-15T00:20:33;1.00;;;1.00;;
12687;SDS011;6408;59.388;17.798;2022-11-15T00:23:02;2.43;;;1.30;;
12687;SDS011;6408;59.388;17.798;2022-11-15T00:25:30;1.40;;;1.10;;
12687;SDS011;6408;59.388;17.798;2022-11-15T00:27:58;1.20;;;1.10;;
12687;SDS011;6408;59.388;17.798;2022-11-15T00:30:26;1.30;;;1.20;;
12687;SDS011;6408;59.388;17.798;2022-11-15T00:32:54;1.40;;;1.30;;
12687;SDS011;6408;59.388;17.798;2022-11-15T00:35:23;1.20;;;1.10;;
12687;SDS011;6408;59.388;17.798;2022-11-15T00:37:51;1.20;;;1.10;;
12687;SDS011;6408;59.388;17.798;2022-11-15T00:40:19;1.17;;;1.07;;
12687;SDS011;6408;59.388;17.798;2022-11-15T00:42:47;1.20;;;1.10;;
12687;SDS011;6408;59.388;17.798;2022-11-15T00:45:14;1.10;;;1.03;;
12687;SDS011;6408;59.388;17.798;2022-11-15T00:47:43;1.20;;;1.10;;
12687;SDS011;6408;59.388;17.798;2022-11-15T00:50:11;1.20;;;1.10;;
12687;SDS011;6408;59.388;17.798;2022-11-15T00:52:40;1.27;;;1.00;;
12687;SDS011;6408;59.388;17.798;2022-11-15T00:55:08;1.00;;;1.00;;
12687;SDS011;6408;59.388;17.798;2022-11-15T00:57:40;1.43;;;1.00;;
12687;SDS011;6408;59.388;17.798;2022-11-15T01:00:08;0.90;;;0.90;;
12687;SDS011;6408;59.388;17.798;2022-11-15T01:02:36;1.77;;;1.30;;
12687;SDS011;6408;59.388;17.798;2022-11-15T01:05:04;1.00;;;1.00;;
12687;SDS011;6408;59.388;17.798;2022-11-15T01:07:32;0.90;;;0.90;;
12687;SDS011;6408;59.388;17.798;2022-11-15T01:10:02;0.70;;;0.70;;
12687;SDS011;6408;59.388;17.798;2022-11-15T01:12:30;1.60;;;1.00;;
12687;SDS011;6408;59.388;17.798;2022-11-15T01:14:57;0.87;;;0.87;;
12687;SDS011;6408;59.388;17.798;2022-11-15T01:17:25;1.00;;;0.90;;
12687;SDS011;6408;59.388;17.798;2022-11-15T01:19:53;0.83;;;0.83;;
12687;SDS011;6408;59.388;17.798;2022-11-15T01:22:20;1.07;;;0.90;;
12687;SDS011;6408;59.388;17.798;2022-11-15T01:24:49;0.90;;;0.80;;
12687;SDS011;6408;59.388;17.798;2022-11-15T01:27:18;1.03;;;0.90;;
12687;SDS011;6408;59.388;17.798;2022-11-15T01:29:45;0.77;;;0.77;;
12687;SDS011;6408;59.388;17.798;2022-11-15T01:32:13;1.10;;;1.00;;
12687;SDS011;6408;59.388;17.798;2022-11-15T01:34:40;1.40;;;1.17;;
12687;SDS011;6408;59.388;17.798;2022-11-15T01:37:08;1.30;;;1.07;;
12687;SDS011;6408;59.388;17.798;2022-11-15T01:39:36;0.93;;;0.93;;
12687;SDS011;6408;59.388;17.798;2022-11-15T01:42:03;1.83;;;0.87;;
12687;SDS011;6408;59.388;17.798;2022-11-15T01:44:37;0.70;;;0.70;;
12687;SDS011;6408;59.388;17.798;2022-11-15T01:47:07;0.80;;;0.80;;
12687;SDS011;6408;59.388;17.798;2022-11-15T01:49:39;0.60;;;0.60;;
12687;SDS011;6408;59.388;17.798;2022-11-15T01:52:12;0.60;;;0.60;;
12687;SDS011;6408;59.388;17.798;2022-11-15T01:54:43;1.03;;;0.93;;
12687;SDS011;6408;59.388;17.798;2022-11-15T01:57:11;0.70;;;0.63;;
12687;SDS011;6408;59.388;17.798;2022-11-15T01:59:42;1.70;;;1.03;;
12687;SDS011;6408;59.388;17.798;2022-11-15T02:02:11;1.10;;;1.00;;
12687;SDS011;6408;59.388;17.798;2022-11-15T02:04:41;1.00;;;1.00;;
12687;SDS011;6408;59.388;17.798;2022-11-15T02:07:10;1.00;;;0.90;;
12687;SDS011;6408;59.388;17.798;2022-11-15T02:09:40;1.17;;;0.90;;
12687;SDS011;6408;59.388;17.798;2022-11-15T02:12:08;1.60;;;1.17;;
12687;SDS011;6408;59.388;17.798;2022-11-15T02:14:37;1.20;;;1.10;;
12687;SDS011;6408;59.388;17.798;2022-11-15T02:17:12;1.10;;;1.00;;
12687;SDS011;6408;59.388;17.798;2022-11-15T02:23:21;1.20;;;1.10;;
12687;SDS011;6408;59.388;17.798;2022-11-15T02:26:30;1.40;;;1.30;;
12687;SDS011;6408;59.388;17.798;2022-11-15T02:29:27;1.60;;;1.13;;
12687;SDS011;6408;59.388;17.798;2022-11-15T02:32:11;1.60;;;1.50;;
12687;SDS011;6408;59.388;17.798;2022-11-15T02:34:47;1.60;;;1.40;;
12687;SDS011;6408;59.388;17.798;2022-11-15T02:37:21;2.27;;;1.47;;
12687;SDS011;6408;59.388;17.798;2022-11-15T02:39:56;1.97;;;1.27;;
12687;SDS011;6408;59.388;17.798;2022-11-15T02:42:30;1.77;;;1.30;;
12687;SDS011;6408;59.388;17.798;2022-11-15T02:45:21;0.87;;;0.87;;
12687;SDS011;6408;59.388;17.798;2022-11-15T02:48:01;0.97;;;0.87;;
12687;SDS011;6408;59.388;17.798;2022-11-15T02:50:30;1.03;;;0.97;;
12687;SDS011;6408;59.388;17.798;2022-11-15T02:52:59;1.20;;;1.10;;
12687;SDS011;6408;59.388;17.798;2022-11-15T02:55:27;1.77;;;1.10;;
12687;SDS011;6408;59.388;17.798;2022-11-15T02:58:01;2.00;;;1.07;;
12687;SDS011;6408;59.388;17.798;2022-11-15T03:00:38;1.40;;;1.30;;
12687;SDS011;6408;59.388;17.798;2022-11-15T03:06:04;1.77;;;1.47;;
12687;SDS011;6408;59.388;17.798;2022-11-15T03:08:44;2.10;;;1.30;;
12687;SDS011;6408;59.388;17.798;2022-11-15T03:11:19;2.90;;;1.70;;
12687;SDS011;6408;59.388;17.798;2022-11-15T03:13:49;1.70;;;1.60;;
12687;SDS011;6408;59.388;17.798;2022-11-15T03:16:24;2.20;;;2.00;;
12687;SDS011;6408;59.388;17.798;2022-11-15T03:19:06;1.83;;;1.73;;
12687;SDS011;6408;59.388;17.798;2022-11-15T03:21:38;2.03;;;1.80;;
12687;SDS011;6408;59.388;17.798;2022-11-15T03:24:07;1.80;;;1.63;;
12687;SDS011;6408;59.388;17.798;2022-11-15T03:26:36;2.03;;;1.83;;
12687;SDS011;6408;59.388;17.798;2022-11-15T03:29:08;1.83;;;1.63;;
12687;SDS011;6408;59.388;17.798;2022-11-15T03:31:39;2.10;;;1.80;;
12687;SDS011;6408;59.388;17.798;2022-11-15T03:34:19;2.43;;;2.10;;
12687;SDS011;6408;59.388;17.798;2022-11-15T03:36:52;2.63;;;2.23;;
12687;SDS011;6408;59.388;17.798;2022-11-15T03:39:20;2.47;;;2.00;;
12687;SDS011;6408;59.388;17.798;2022-11-15T03:41:50;2.40;;;2.10;;
12687;SDS011;6408;59.388;17.798;2022-11-15T03:44:27;2.60;;;1.80;;
12687;SDS011;6408;59.388;17.798;2022-11-15T03:47:03;3.33;;;2.23;;
12687;SDS011;6408;59.388;17.798;2022-11-15T03:49:36;2.30;;;2.00;;
12687;SDS011;6408;59.388;17.798;2022-11-15T03:52:09;2.63;;;2.00;;
12687;SDS011;6408;59.388;17.798;2022-11-15T03:54:44;2.57;;;2.03;;
12687;SDS011;6408;59.388;17.798;2022-11-15T03:57:15;3.00;;;2.10;;
12687;SDS011;6408;59.388;17.798;2022-11-15T03:59:42;3.30;;;2.00;;
12687;SDS011;6408;59.388;17.798;2022-11-15T04:02:09;2.50;;;2.07;;
12687;SDS011;6408;59.388;17.798;2022-11-15T04:04:40;2.20;;;2.00;;
12687;SDS011;6408;59.388;17.798;2022-11-15T04:07:07;2.30;;;2.10;;
12687;SDS011;6408;59.388;17.798;2022-11-15T04:09:34;2.20;;;2.00;;
12687;SDS011;6408;59.388;17.798;2022-11-15T04:12:23;2.40;;;2.20;;
12687;SDS011;6408;59.388;17.798;2022-11-15T04:14:57;2.00;;;1.80;;
12687;SDS011;6408;59.388;17.798;2022-11-15T04:17:35;1.87;;;1.73;;
12687;SDS011;6408;59.388;17.798;2022-11-15T04:20:07;3.67;;;1.73;;
12687;SDS011;6408;59.388;17.798;2022-11-15T04:22:54;3.07;;;1.50;;
12687;SDS011;6408;59.388;17.798;2022-11-15T04:25:40;1.53;;;1.33;;
12687;SDS011;6408;59.388;17.798;2022-11-15T04:28:08;1.73;;;1.50;;
12687;SDS011;6408;59.388;17.798;2022-11-15T04:30:36;1.43;;;1.30;;
12687;SDS011;6408;59.388;17.798;2022-11-15T04:33:03;1.30;;;1.20;;
12687;SDS011;6408;59.388;17.798;2022-11-15T04:35:32;2.00;;;1.50;;
12687;SDS011;6408;59.388;17.798;2022-11-15T04:38:00;1.60;;;1.50;;
12687;SDS011;6408;59.388;17.798;2022-11-15T04:40:30;1.50;;;1.40;;
12687;SDS011;6408;59.388;17.798;2022-11-15T04:42:57;1.60;;;1.50;;
12687;SDS011;6408;59.388;17.798;2022-11-15T04:45:24;2.07;;;1.70;;
12687;SDS011;6408;59.388;17.798;2022-11-15T04:47:52;1.63;;;1.53;;
12687;SDS011;6408;59.388;17.798;2022-11-15T04:50:19;1.73;;;1.60;;
12687;SDS011;6408;59.388;17.798;2022-11-15T04:52:52;1.70;;;1.60;;
12687;SDS011;6408;59.388;17.798;2022-11-15T04:55:20;3.13;;;2.03;;
12687;SDS011;6408;59.388;17.798;2022-11-15T04:57:48;2.40;;;1.77;;
12687;SDS011;6408;59.388;17.798;2022-11-15T05:00:24;1.97;;;1.77;;
12687;SDS011;6408;59.388;17.798;2022-11-15T05:02:51;2.37;;;2.00;;
12687;SDS011;6408;59.388;17.798;2022-11-15T05:05:35;2.33;;;1.77;;
12687;SDS011;6408;59.388;17.798;2022-11-15T05:08:05;2.63;;;1.67;;
12687;SDS011;6408;59.388;17.798;2022-11-15T05:10:33;4.00;;;1.80;;
12687;SDS011;6408;59.388;17.798;2022-11-15T05:13:00;3.87;;;1.87;;
12687;SDS011;6408;59.388;17.798;2022-11-15T05:15:28;3.70;;;2.00;;
12687;SDS011;6408;59.388;17.798;2022-11-15T05:17:57;2.20;;;1.70;;
12687;SDS011;6408;59.388;17.798;2022-11-15T05:20:25;3.73;;;1.70;;
12687;SDS011;6408;59.388;17.798;2022-11-15T05:22:53;2.17;;;1.60;;
12687;SDS011;6408;59.388;17.798;2022-11-15T05:25:22;1.80;;;1.70;;
12687;SDS011;6408;59.388;17.798;2022-11-15T05:27:50;4.60;;;2.10;;
12687;SDS011;6408;59.388;17.798;2022-11-15T05:30:18;2.17;;;1.97;;
12687;SDS011;6408;59.388;17.798;2022-11-15T05:32:45;2.17;;;1.93;;
12687;SDS011;6408;59.388;17.798;2022-11-15T05:35:15;2.53;;;2.00;;
12687;SDS011;6408;59.388;17.798;2022-11-15T05:37:46;3.40;;;1.90;;
12687;SDS011;6408;59.388;17.798;2022-11-15T05:40:15;2.27;;;1.70;;
12687;SDS011;6408;59.388;17.798;2022-11-15T05:42:44;2.43;;;2.00;;
12687;SDS011;6408;59.388;17.798;2022-11-15T05:45:12;3.83;;;1.70;;
12687;SDS011;6408;59.388;17.798;2022-11-15T05:47:40;3.93;;;1.70;;
12687;SDS011;6408;59.388;17.798;2022-11-15T05:50:09;2.87;;;1.70;;
12687;SDS011;6408;59.388;17.798;2022-11-15T05:52:39;2.30;;;1.70;;
12687;SDS011;6408;59.388;17.798;2022-11-15T05:55:06;3.37;;;1.60;;
12687;SDS011;6408;59.388;17.798;2022-11-15T05:57:35;2.93;;;1.53;;
12687;SDS011;6408;59.388;17.798;2022-11-15T06:00:05;1.90;;;1.50;;
12687;SDS011;6408;59.388;17.798;2022-11-15T06:02:34;3.70;;;2.03;;
12687;SDS011;6408;59.388;17.798;2022-11-15T06:05:02;2.97;;;1.40;;
12687;SDS011;6408;59.388;17.798;2022-11-15T06:07:30;3.07;;;1.10;;
12687;SDS011;6408;59.388;17.798;2022-11-15T06:09:57;2.43;;;1.10;;
12687;SDS011;6408;59.388;17.798;2022-11-15T06:12:25;2.60;;;1.00;;
12687;SDS011;6408;59.388;17.798;2022-11-15T06:14:52;2.23;;;0.90;;
12687;SDS011;6408;59.388;17.798;2022-11-15T06:17:21;1.70;;;1.10;;
12687;SDS011;6408;59.388;17.798;2022-11-15T06:20:04;3.93;;;0.90;;
12687;SDS011;6408;59.388;17.798;2022-11-15T06:22:41;0.97;;;0.80;;
12687;SDS011;6408;59.388;17.798;2022-11-15T06:25:08;3.23;;;1.47;;
12687;SDS011;6408;59.388;17.798;2022-11-15T06:27:36;3.20;;;1.07;;
12687;SDS011;6408;59.388;17.798;2022-11-15T06:30:03;1.63;;;1.13;;
12687;SDS011;6408;59.388;17.798;2022-11-15T06:32:33;2.17;;;1.00;;
12687;SDS011;6408;59.388;17.798;2022-11-15T06:35:01;1.40;;;1.30;;
12687;SDS011;6408;59.388;17.798;2022-11-15T06:37:28;2.63;;;1.20;;
12687;SDS011;6408;59.388;17.798;2022-11-15T06:39:55;2.50;;;1.10;;
12687;SDS011;6408;59.388;17.798;2022-11-15T06:42:23;4.83;;;1.10;;
12687;SDS011;6408;59.388;17.798;2022-11-15T06:44:50;2.17;;;1.10;;
12687;SDS011;6408;59.388;17.798;2022-11-15T06:47:17;2.10;;;1.37;;
12687;SDS011;6408;59.388;17.798;2022-11-15T06:49:47;1.67;;;1.00;;
12687;SDS011;6408;59.388;17.798;2022-11-15T06:52:14;1.53;;;1.10;;
12687;SDS011;6408;59.388;17.798;2022-11-15T06:54:43;1.33;;;1.07;;
12687;SDS011;6408;59.388;17.798;2022-11-15T06:57:11;1.50;;;0.90;;
12687;SDS011;6408;59.388;17.798;2022-11-15T06:59:38;2.53;;;1.07;;
12687;SDS011;6408;59.388;17.798;2022-11-15T07:02:06;3.60;;;1.00;;
12687;SDS011;6408;59.388;17.798;2022-11-15T07:04:38;0.87;;;0.80;;
12687;SDS011;6408;59.388;17.798;2022-11-15T07:07:07;5.50;;;1.10;;
12687;SDS011;6408;59.388;17.798;2022-11-15T07:09:34;2.23;;;1.00;;
12687;SDS011;6408;59.388;17.798;2022-11-15T07:12:02;1.97;;;1.00;;
12687;SDS011;6408;59.388;17.798;2022-11-15T07:14:30;4.80;;;1.23;;
12687;SDS011;6408;59.388;17.798;2022-11-15T07:16:57;1.27;;;0.90;;
12687;SDS011;6408;59.388;17.798;2022-11-15T07:19:24;2.77;;;0.90;;
12687;SDS011;6408;59.388;17.798;2022-11-15T07:21:52;2.93;;;0.97;;
12687;SDS011;6408;59.388;17.798;2022-11-15T07:24:21;3.27;;;1.00;;
12687;SDS011;6408;59.388;17.798;2022-11-15T07:26:48;2.43;;;0.90;;
12687;SDS011;6408;59.388;17.798;2022-11-15T07:29:16;1.30;;;0.90;;
12687;SDS011;6408;59.388;17.798;2022-11-15T07:31:43;4.00;;;1.07;;
12687;SDS011;6408;59.388;17.798;2022-11-15T07:34:11;3.07;;;0.90;;
12687;SDS011;6408;59.388;17.798;2022-11-15T07:36:38;3.90;;;1.10;;
12687;SDS011;6408;59.388;17.798;2022-11-15T07:39:06;1.83;;;0.90;;
12687;SDS011;6408;59.388;17.798;2022-11-15T07:41:35;1.23;;;0.93;;
12687;SDS011;6408;59.388;17.798;2022-11-15T07:44:03;1.57;;;0.77;;
12687;SDS011;6408;59.388;17.798;2022-11-15T07:46:31;2.10;;;1.00;;
12687;SDS011;6408;59.388;17.798;2022-11-15T07:48:58;0.90;;;0.80;;
12687;SDS011;6408;59.388;17.798;2022-11-15T07:51:26;2.17;;;1.30;;
12687;SDS011;6408;59.388;17.798;2022-11-15T07:53:53;2.20;;;0.80;;
12687;SDS011;6408;59.388;17.798;2022-11-15T07:56:21;1.40;;;0.80;;
12687;SDS011;6408;59.388;17.798;2022-11-15T07:58:50;1.03;;;0.80;;
12687;SDS011;6408;59.388;17.798;2022-11-15T08:01:17;2.20;;;1.07;;
12687;SDS011;6408;59.388;17.798;2022-11-15T08:03:44;4.23;;;1.20;;
12687;SDS011;6408;59.388;17.798;2022-11-15T08:06:12;2.97;;;1.40;;
12687;SDS011;6408;59.388;17.798;2022-11-15T08:08:39;3.43;;;1.10;;
12687;SDS011;6408;59.388;17.798;2022-11-15T08:11:07;3.80;;;1.10;;
12687;SDS011;6408;59.388;17.798;2022-11-15T08:13:34;2.90;;;1.03;;
12687;SDS011;6408;59.388;17.798;2022-11-15T08:16:04;1.63;;;0.93;;
12687;SDS011;6408;59.388;17.798;2022-11-15T08:18:31;3.70;;;1.10;;
12687;SDS011;6408;59.388;17.798;2022-11-15T08:20:59;1.67;;;1.07;;
12687;SDS011;6408;59.388;17.798;2022-11-15T08:23:27;3.93;;;1.00;;
12687;SDS011;6408;59.388;17.798;2022-11-15T08:25:58;1.90;;;1.07;;
12687;SDS011;6408;59.388;17.798;2022-11-15T08:28:27;2.40;;;0.80;;
12687;SDS011;6408;59.388;17.798;2022-11-15T08:30:55;2.07;;;1.00;;
12687;SDS011;6408;59.388;17.798;2022-11-15T08:33:24;0.83;;;0.73;;
12687;SDS011;6408;59.388;17.798;2022-11-15T08:35:51;2.30;;;0.90;;
12687;SDS011;6408;59.388;17.798;2022-11-15T08:38:22;1.30;;;0.83;;
12687;SDS011;6408;59.388;17.798;2022-11-15T08:40:49;1.83;;;1.10;;
12687;SDS011;6408;59.388;17.798;2022-11-15T08:43:18;1.37;;;0.80;;
12687;SDS011;6408;59.388;17.798;2022-11-15T08:45:46;1.70;;;0.70;;
12687;SDS011;6408;59.388;17.798;2022-11-15T08:48:13;1.83;;;0.70;;
12687;SDS011;6408;59.388;17.798;2022-11-15T08:50:43;0.77;;;0.50;;
12687;SDS011;6408;59.388;17.798;2022-11-15T08:53:10;1.10;;;0.60;;
12687;SDS011;6408;59.388;17.798;2022-11-15T08:55:39;2.17;;;0.70;;
12687;SDS011;6408;59.388;17.798;2022-11-15T08:58:07;3.90;;;0.80;;
12687;SDS011;6408;59.388;17.798;2022-11-15T09:00:34;2.00;;;0.80;;
12687;SDS011;6408;59.388;17.798;2022-11-15T09:03:03;1.80;;;0.60;;
12687;SDS011;6408;59.388;17.798;2022-11-15T09:05:31;1.83;;;1.10;;
12687;SDS011;6408;59.388;17.798;2022-11-15T09:08:00;1.00;;;0.60;;
12687;SDS011;6408;59.388;17.798;2022-11-15T09:10:27;0.70;;;0.50;;
12687;SDS011;6408;59.388;17.798;2022-11-15T09:12:56;1.13;;;0.70;;
12687;SDS011;6408;59.388;17.798;2022-11-15T09:15:24;2.27;;;0.73;;
12687;SDS011;6408;59.388;17.798;2022-11-15T09:17:51;2.70;;;0.77;;
12687;SDS011;6408;59.388;17.798;2022-11-15T09:20:18;1.47;;;0.60;;
12687;SDS011;6408;59.388;17.798;2022-11-15T09:22:46;1.13;;;0.60;;
12687;SDS011;6408;59.388;17.798;2022-11-15T09:25:15;1.53;;;0.60;;
12687;SDS011;6408;59.388;17.798;2022-11-15T09:27:42;1.10;;;0.50;;
12687;SDS011;6408;59.388;17.798;2022-11-15T09:30:10;1.57;;;0.73;;
12687;SDS011;6408;59.388;17.798;2022-11-15T09:32:38;0.70;;;0.50;;
12687;SDS011;6408;59.388;17.798;2022-11-15T09:35:05;2.57;;;0.90;;
12687;SDS011;6408;59.388;17.798;2022-11-15T09:37:33;1.93;;;0.63;;
12687;SDS011;6408;59.388;17.798;2022-11-15T09:40:00;2.03;;;0.80;;
12687;SDS011;6408;59.388;17.798;2022-11-15T09:45:26;1.03;;;0.70;;
12687;SDS011;6408;59.388;17.798;2022-11-15T09:48:09;2.53;;;1.00;;
12687;SDS011;6408;59.388;17.798;2022-11-15T09:50:53;1.23;;;0.60;;
12687;SDS011;6408;59.388;17.798;2022-11-15T09:53:25;2.80;;;0.80;;
12687;SDS011;6408;59.388;17.798;2022-11-15T09:55:57;2.67;;;0.90;;
12687;SDS011;6408;59.388;17.798;2022-11-15T09:58:39;2.03;;;0.73;;
12687;SDS011;6408;59.388;17.798;2022-11-15T10:01:12;1.40;;;0.60;;
12687;SDS011;6408;59.388;17.798;2022-11-15T10:03:43;2.37;;;0.70;;
12687;SDS011;6408;59.388;17.798;2022-11-15T10:06:16;2.40;;;0.70;;
12687;SDS011;6408;59.388;17.798;2022-11-15T10:08:51;1.50;;;0.70;;
12687;SDS011;6408;59.388;17.798;2022-11-15T10:11:24;1.90;;;0.90;;
12687;SDS011;6408;59.388;17.798;2022-11-15T10:13:56;1.47;;;0.60;;
12687;SDS011;6408;59.388;17.798;2022-11-15T10:16:37;1.43;;;0.77;;
12687;SDS011;6408;59.388;17.798;2022-11-15T10:19:30;1.37;;;0.67;;
12687;SDS011;6408;59.388;17.798;2022-11-15T10:22:11;1.17;;;0.60;;
12687;SDS011;6408;59.388;17.798;2022-11-15T10:24:48;1.57;;;0.60;;
12687;SDS011;6408;59.388;17.798;2022-11-15T10:27:24;1.43;;;0.60;;
12687;SDS011;6408;59.388;17.798;2022-11-15T10:29:53;1.57;;;0.70;;
12687;SDS011;6408;59.388;17.798;2022-11-15T10:32:21;2.77;;;0.90;;
12687;SDS011;6408;59.388;17.798;2022-11-15T10:34:49;2.13;;;0.60;;
12687;SDS011;6408;59.388;17.798;2022-11-15T10:37:26;0.80;;;0.80;;
12687;SDS011;6408;59.388;17.798;2022-11-15T10:40:02;3.53;;;0.63;;
12687;SDS011;6408;59.388;17.798;2022-11-15T10:42:31;0.87;;;0.70;;
12687;SDS011;6408;59.388;17.798;2022-11-15T10:45:00;1.37;;;0.77;;
12687;SDS011;6408;59.388;17.798;2022-11-15T10:47:28;1.67;;;0.83;;
12687;SDS011;6408;59.388;17.798;2022-11-15T10:49:58;1.77;;;0.90;;
12687;SDS011;6408;59.388;17.798;2022-11-15T10:52:28;2.30;;;0.97;;
12687;SDS011;6408;59.388;17.798;2022-11-15T10:54:58;0.93;;;0.70;;
12687;SDS011;6408;59.388;17.798;2022-11-15T10:57:30;1.27;;;0.80;;
12687;SDS011;6408;59.388;17.798;2022-11-15T11:00:03;0.90;;;0.60;;
12687;SDS011;6408;59.388;17.798;2022-11-15T11:02:33;0.60;;;0.53;;
12687;SDS011;6408;59.388;17.798;2022-11-15T11:05:03;2.53;;;1.00;;
12687;SDS011;6408;59.388;17.798;2022-11-15T11:07:33;2.10;;;1.03;;
12687;SDS011;6408;59.388;17.798;2022-11-15T11:10:03;0.70;;;0.70;;
12687;SDS011;6408;59.388;17.798;2022-11-15T11:12:43;4.50;;;1.03;;
12687;SDS011;6408;59.388;17.798;2022-11-15T11:15:13;1.93;;;0.90;;
12687;SDS011;6408;59.388;17.798;2022-11-15T11:17:48;3.17;;;0.80;;
12687;SDS011;6408;59.388;17.798;2022-11-15T11:20:25;1.37;;;0.80;;
12687;SDS011;6408;59.388;17.798;2022-11-15T11:23:04;3.43;;;0.80;;
12687;SDS011;6408;59.388;17.798;2022-11-15T11:25:43;1.90;;;0.70;;
12687;SDS011;6408;59.388;17.798;2022-11-15T11:28:23;2.40;;;1.23;;
12687;SDS011;6408;59.388;17.798;2022-11-15T11:31:04;2.20;;;0.93;;
12687;SDS011;6408;59.388;17.798;2022-11-15T11:33:41;1.23;;;0.90;;
12687;SDS011;6408;59.388;17.798;2022-11-15T11:36:18;2.33;;;1.10;;
12687;SDS011;6408;59.388;17.798;2022-11-15T11:38:55;1.00;;;0.90;;
12687;SDS011;6408;59.388;17.798;2022-11-15T11:41:31;2.30;;;0.80;;
12687;SDS011;6408;59.388;17.798;2022-11-15T11:44:23;1.83;;;0.83;;
12687;SDS011;6408;59.388;17.798;2022-11-15T11:47:00;3.40;;;0.70;;
12687;SDS011;6408;59.388;17.798;2022-11-15T11:49:32;1.80;;;0.90;;
12687;SDS011;6408;59.388;17.798;2022-11-15T11:52:02;2.87;;;0.93;;
12687;SDS011;6408;59.388;17.798;2022-11-15T11:54:38;1.53;;;0.80;;
12687;SDS011;6408;59.388;17.798;2022-11-15T11:57:15;2.00;;;0.77;;
12687;SDS011;6408;59.388;17.798;2022-11-15T12:00:02;3.03;;;0.90;;
12687;SDS011;6408;59.388;17.798;2022-11-15T12:02:41;2.10;;;1.07;;
12687;SDS011;6408;59.388;17.798;2022-11-15T12:05:13;0.97;;;0.90;;
12687;SDS011;6408;59.388;17.798;2022-11-15T12:07:46;2.70;;;1.10;;
12687;SDS011;6408;59.388;17.798;2022-11-15T12:10:18;1.20;;;1.10;;
12687;SDS011;6408;59.388;17.798;2022-11-15T12:12:50;1.90;;;0.90;;
12687;SDS011;6408;59.388;17.798;2022-11-15T12:15:24;1.27;;;1.00;;
12687;SDS011;6408;59.388;17.798;2022-11-15T12:17:56;1.60;;;1.00;;
12687;SDS011;6408;59.388;17.798;2022-11-15T12:20:25;1.13;;;1.03;;
12687;SDS011;6408;59.388;17.798;2022-11-15T12:22:56;1.00;;;0.80;;
12687;SDS011;6408;59.388;17.798;2022-11-15T12:25:29;2.10;;;0.90;;
12687;SDS011;6408;59.388;17.798;2022-11-15T12:28:00;1.77;;;0.80;;
12687;SDS011;6408;59.388;17.798;2022-11-15T12:30:41;2.63;;;1.00;;
12687;SDS011;6408;59.388;17.798;2022-11-15T12:33:34;1.40;;;0.80;;
12687;SDS011;6408;59.388;17.798;2022-11-15T12:36:05;2.23;;;1.07;;
12687;SDS011;6408;59.388;17.798;2022-11-15T12:38:50;2.87;;;1.13;;
12687;SDS011;6408;59.388;17.798;2022-11-15T12:41:21;1.73;;;0.77;;
12687;SDS011;6408;59.388;17.798;2022-11-15T12:43:51;1.93;;;1.00;;
12687;SDS011;6408;59.388;17.798;2022-11-15T12:46:20;0.90;;;0.90;;
12687;SDS011;6408;59.388;17.798;2022-11-15T12:48:56;2.90;;;0.97;;
12687;SDS011;6408;59.388;17.798;2022-11-15T12:54:51;3.40;;;1.10;;
12687;SDS011;6408;59.388;17.798;2022-11-15T12:57:31;2.80;;;1.00;;
12687;SDS011;6408;59.388;17.798;2022-11-15T13:00:02;1.07;;;0.87;;
12687;SDS011;6408;59.388;17.798;2022-11-15T13:02:47;3.43;;;0.87;;
12687;SDS011;6408;59.388;17.798;2022-11-15T13:14:43;2.07;;;1.17;;
12687;SDS011;6408;59.388;17.798;2022-11-15T13:19:59;2.00;;;1.10;;
12687;SDS011;6408;59.388;17.798;2022-11-15T13:22:38;2.10;;;1.10;;
12687;SDS011;6408;59.388;17.798;2022-11-15T13:28:32;1.33;;;1.00;;
12687;SDS011;6408;59.388;17.798;2022-11-15T13:31:03;1.47;;;1.03;;
12687;SDS011;6408;59.388;17.798;2022-11-15T13:33:48;1.10;;;0.93;;
12687;SDS011;6408;59.388;17.798;2022-11-15T13:36:18;2.23;;;1.17;;
12687;SDS011;6408;59.388;17.798;2022-11-15T13:38:53;3.10;;;1.40;;
12687;SDS011;6408;59.388;17.798;2022-11-15T13:41:23;2.80;;;1.50;;
12687;SDS011;6408;59.388;17.798;2022-11-15T13:43:53;3.03;;;1.40;;
12687;SDS011;6408;59.388;17.798;2022-11-15T13:46:22;2.23;;;1.03;;
12687;SDS011;6408;59.388;17.798;2022-11-15T13:48:53;2.57;;;1.20;;
12687;SDS011;6408;59.388;17.798;2022-11-15T13:51:24;3.63;;;1.40;;
12687;SDS011;6408;59.388;17.798;2022-11-15T13:54:01;2.00;;;1.00;;
12687;SDS011;6408;59.388;17.798;2022-11-15T13:56:34;2.40;;;1.30;;
12687;SDS011;6408;59.388;17.798;2022-11-15T13:59:09;6.30;;;1.10;;
12687;SDS011;6408;59.388;17.798;2022-11-15T14:01:41;2.63;;;1.20;;
12687;SDS011;6408;59.388;17.798;2022-11-15T14:04:11;2.47;;;1.10;;
12687;SDS011;6408;59.388;17.798;2022-11-15T14:06:44;1.97;;;1.00;;
12687;SDS011;6408;59.388;17.798;2022-11-15T14:12:22;1.40;;;1.10;;
12687;SDS011;6408;59.388;17.798;2022-11-15T14:14:56;1.33;;;1.03;;
12687;SDS011;6408;59.388;17.798;2022-11-15T14:17:34;1.97;;;1.10;;
12687;SDS011;6408;59.388;17.798;2022-11-15T14:22:50;1.87;;;1.20;;
12687;SDS011;6408;59.388;17.798;2022-11-15T14:25:19;2.43;;;1.20;;
12687;SDS011;6408;59.388;17.798;2022-11-15T14:30:43;2.87;;;1.07;;
12687;SDS011;6408;59.388;17.798;2022-11-15T14:33:19;3.53;;;1.20;;
12687;SDS011;6408;59.388;17.798;2022-11-15T14:35:48;3.13;;;1.20;;
12687;SDS011;6408;59.388;17.798;2022-11-15T14:38:16;1.03;;;0.90;;
12687;SDS011;6408;59.388;17.798;2022-11-15T14:40:43;1.83;;;1.20;;
12687;SDS011;6408;59.388;17.798;2022-11-15T14:43:11;3.43;;;0.97;;
12687;SDS011;6408;59.388;17.798;2022-11-15T14:45:39;2.50;;;1.00;;
12687;SDS011;6408;59.388;17.798;2022-11-15T14:48:24;1.30;;;0.77;;
12687;SDS011;6408;59.388;17.798;2022-11-15T14:50:52;1.93;;;1.00;;
12687;SDS011;6408;59.388;17.798;2022-11-15T14:53:19;1.63;;;1.00;;
12687;SDS011;6408;59.388;17.798;2022-11-15T14:55:47;2.23;;;1.30;;
12687;SDS011;6408;59.388;17.798;2022-11-15T14:58:14;1.57;;;0.93;;
12687;SDS011;6408;59.388;17.798;2022-11-15T15:00:42;2.20;;;0.60;;
12687;SDS011;6408;59.388;17.798;2022-11-15T15:03:09;1.23;;;0.73;;
12687;SDS011;6408;59.388;17.798;2022-11-15T15:05:39;2.57;;;0.93;;
12687;SDS011;6408;59.388;17.798;2022-11-15T15:08:08;2.30;;;0.90;;
12687;SDS011;6408;59.388;17.798;2022-11-15T15:10:37;2.30;;;1.00;;
12687;SDS011;6408;59.388;17.798;2022-11-15T15:13:06;1.00;;;0.70;;
12687;SDS011;6408;59.388;17.798;2022-11-15T15:15:41;1.27;;;0.90;;
12687;SDS011;6408;59.388;17.798;2022-11-15T15:18:09;3.57;;;0.90;;
12687;SDS011;6408;59.388;17.798;2022-11-15T15:20:39;1.40;;;1.00;;
12687;SDS011;6408;59.388;17.798;2022-11-15T15:23:09;1.53;;;0.97;;
12687;SDS011;6408;59.388;17.798;2022-11-15T15:25:41;1.30;;;0.90;;
12687;SDS011;6408;59.388;17.798;2022-11-15T15:28:10;2.70;;;1.10;;
12687;SDS011;6408;59.388;17.798;2022-11-15T15:30:37;4.20;;;1.30;;
12687;SDS011;6408;59.388;17.798;2022-11-15T15:33:05;2.53;;;0.90;;
12687;SDS011;6408;59.388;17.798;2022-11-15T15:35:33;1.30;;;1.00;;
12687;SDS011;6408;59.388;17.798;2022-11-15T15:38:02;4.50;;;1.20;;
12687;SDS011;6408;59.388;17.798;2022-11-15T15:40:31;1.87;;;0.73;;
12687;SDS011;6408;59.388;17.798;2022-11-15T15:42:59;1.20;;;0.80;;
12687;SDS011;6408;59.388;17.798;2022-11-15T15:45:27;3.43;;;1.20;;
12687;SDS011;6408;59.388;17.798;2022-11-15T15:47:54;1.50;;;1.10;;